createdAt,value
2019-01-12T00:00:25.951Z,3.20
2019-01-12T00:02:54.248Z,3.12
2019-01-12T00:05:22.547Z,2.90
2019-01-12T00:07:50.839Z,3.20
2019-01-12T00:10:19.153Z,2.90
2019-01-12T00:12:47.686Z,3.00
2019-01-12T00:15:16.243Z,2.55
2019-01-12T00:17:44.533Z,2.42
2019-01-12T00:20:12.828Z,2.80
2019-01-12T00:22:41.120Z,2.50
2019-01-12T00:25:09.502Z,2.50
2019-01-12T00:27:37.792Z,2.50
2019-01-12T00:30:09.678Z,2.10
2019-01-12T00:32:38.027Z,2.70
2019-01-12T00:35:06.475Z,2.10
2019-01-12T00:37:34.758Z,2.10
2019-01-12T00:40:03.082Z,2.30
2019-01-12T00:42:31.381Z,2.20
2019-01-12T00:44:59.777Z,2.70
2019-01-12T00:47:28.063Z,2.62
2019-01-12T00:49:56.357Z,2.10
2019-01-12T00:52:24.724Z,2.60
2019-01-12T00:54:53.021Z,2.40
2019-01-12T00:57:21.314Z,2.30
2019-01-12T00:59:49.871Z,2.70
2019-01-12T01:02:18.183Z,2.50
2019-01-12T01:04:46.476Z,2.55
2019-01-12T01:07:14.776Z,2.70
2019-01-12T01:09:43.055Z,2.35
2019-01-12T01:12:11.355Z,2.80
2019-01-12T01:14:39.635Z,2.80
2019-01-12T01:17:07.984Z,2.80
2019-01-12T01:19:36.301Z,2.10
2019-01-12T01:22:04.679Z,2.50
2019-01-12T01:24:32.972Z,2.80
2019-01-12T01:27:01.516Z,2.50
2019-01-12T01:29:30.088Z,2.80
2019-01-12T01:31:58.370Z,3.20
2019-01-12T01:34:26.928Z,2.80
2019-01-12T01:36:55.466Z,2.90
2019-01-12T01:39:23.784Z,2.98
2019-01-12T01:41:52.077Z,2.50
2019-01-12T01:44:20.388Z,2.80
2019-01-12T01:46:48.681Z,2.70
2019-01-12T01:49:16.979Z,2.58
2019-01-12T01:51:45.536Z,3.10
2019-01-12T01:54:13.823Z,3.00
2019-01-12T01:56:42.134Z,3.00
2019-01-12T01:59:10.423Z,2.77
2019-01-12T02:01:38.990Z,3.30
2019-01-12T02:04:07.282Z,3.33
2019-01-12T02:06:35.584Z,3.30
2019-01-12T02:09:05.570Z,2.90
2019-01-12T02:11:34.150Z,2.87
2019-01-12T02:14:02.453Z,3.42
2019-01-12T02:16:30.748Z,3.00
2019-01-12T02:18:59.054Z,3.10
2019-01-12T02:21:27.625Z,3.15
2019-01-12T02:23:55.911Z,3.12
2019-01-12T02:26:24.201Z,3.25
2019-01-12T02:28:52.503Z,3.20
2019-01-12T02:31:20.802Z,3.60
2019-01-12T02:33:49.097Z,3.10
2019-01-12T02:36:17.375Z,4.00
2019-01-12T02:38:45.688Z,4.40
2019-01-12T02:41:13.968Z,4.20
2019-01-12T02:43:42.280Z,4.08
2019-01-12T02:46:10.568Z,4.00
2019-01-12T02:48:38.882Z,4.30
2019-01-12T02:51:07.182Z,4.07
2019-01-12T02:53:35.481Z,3.60
2019-01-12T02:56:03.766Z,3.50
2019-01-12T02:58:32.050Z,3.50
2019-01-12T03:01:00.357Z,3.00
2019-01-12T03:03:28.816Z,3.20
2019-01-12T03:05:57.124Z,3.10
2019-01-12T03:08:25.401Z,3.52
2019-01-12T03:10:53.699Z,3.10
2019-01-12T03:13:21.982Z,4.17
2019-01-12T03:15:50.528Z,4.20
2019-01-12T03:18:18.813Z,4.42
2019-01-12T03:20:47.123Z,4.40
2019-01-12T03:23:15.417Z,4.30
2019-01-12T03:25:43.723Z,6.03
2019-01-12T03:28:12.032Z,5.72
2019-01-12T03:30:40.341Z,6.53
2019-01-12T03:33:08.629Z,6.07
2019-01-12T03:35:37.173Z,6.70
2019-01-12T03:38:05.525Z,6.33
2019-01-12T03:40:34.068Z,7.15
2019-01-12T03:43:02.375Z,6.50
2019-01-12T03:45:30.831Z,7.40
2019-01-12T03:47:59.140Z,7.62
2019-01-12T03:50:27.435Z,8.78
2019-01-12T03:52:55.751Z,9.43
2019-01-12T03:55:25.844Z,9.58
2019-01-12T03:57:54.551Z,9.98
2019-01-12T04:00:22.905Z,10.15
2019-01-12T04:02:51.262Z,9.78
2019-01-12T04:05:19.630Z,9.80
2019-01-12T04:07:48.006Z,10.05
2019-01-12T04:10:16.315Z,9.95
2019-01-12T04:12:44.610Z,9.80
2019-01-12T04:15:13.716Z,9.60
2019-01-12T04:17:42.261Z,9.70
2019-01-12T04:20:15.650Z,10.40
2019-01-12T04:22:43.958Z,10.18
2019-01-12T04:25:12.267Z,11.33
2019-01-12T04:27:40.565Z,11.23
2019-01-12T04:30:12.048Z,11.20
2019-01-12T04:32:40.351Z,11.20
2019-01-12T04:35:08.783Z,10.98
2019-01-12T04:37:37.180Z,11.60
2019-01-12T04:40:08.639Z,12.15
2019-01-12T04:42:36.949Z,12.00
2019-01-12T04:45:07.595Z,11.90
2019-01-12T04:47:35.921Z,11.90
2019-01-12T04:50:06.848Z,11.70
2019-01-12T04:52:35.402Z,11.90
2019-01-12T04:55:04.487Z,12.60
2019-01-12T04:57:32.796Z,12.03
2019-01-12T05:00:01.087Z,11.70
2019-01-12T05:02:29.391Z,10.98
2019-01-12T05:04:57.698Z,10.88
2019-01-12T05:07:26.001Z,11.43
2019-01-12T05:09:54.319Z,10.30
2019-01-12T05:12:22.609Z,8.88
2019-01-12T05:14:51.178Z,9.40
2019-01-12T05:17:19.462Z,9.85
2019-01-12T05:19:47.784Z,10.13
2019-01-12T05:22:16.078Z,9.90
2019-01-12T05:24:44.381Z,9.90
2019-01-12T05:27:12.669Z,9.88
2019-01-12T05:29:40.983Z,9.70
2019-01-12T05:32:09.278Z,9.40
2019-01-12T05:34:37.836Z,9.57
2019-01-12T05:37:06.139Z,10.08
2019-01-12T05:39:35.180Z,9.93
2019-01-12T05:42:03.467Z,9.85
2019-01-12T05:44:31.749Z,8.88
2019-01-12T05:47:00.052Z,9.17
2019-01-12T05:49:28.341Z,8.05
2019-01-12T05:51:56.640Z,8.80
2019-01-12T05:54:24.925Z,9.00
2019-01-12T05:56:53.233Z,9.13
2019-01-12T05:59:21.518Z,9.40
2019-01-12T06:01:49.821Z,9.50
2019-01-12T06:04:18.116Z,9.03
2019-01-12T06:06:46.440Z,8.70
2019-01-12T06:09:14.728Z,7.42
2019-01-12T06:11:43.045Z,7.95
2019-01-12T06:14:11.581Z,7.10
2019-01-12T06:16:39.878Z,6.97
2019-01-12T06:19:08.207Z,7.97
2019-01-12T06:21:36.514Z,7.62
2019-01-12T06:24:05.154Z,7.67
2019-01-12T06:26:33.440Z,7.78
2019-01-12T06:29:01.748Z,7.60
2019-01-12T06:31:30.039Z,8.03
2019-01-12T06:33:58.341Z,8.20
2019-01-12T06:36:26.633Z,7.83
2019-01-12T06:38:55.020Z,7.78
2019-01-12T06:41:23.318Z,7.90
2019-01-12T06:43:51.624Z,8.13
2019-01-12T06:46:19.938Z,9.20
2019-01-12T06:48:48.228Z,11.50
2019-01-12T06:51:16.534Z,10.30
2019-01-12T06:53:44.821Z,10.78
2019-01-12T06:56:13.138Z,10.10
2019-01-12T06:58:41.437Z,11.70
2019-01-12T07:01:10.006Z,11.65
2019-01-12T07:03:38.562Z,14.75
2019-01-12T07:06:06.881Z,25.23
2019-01-12T07:08:35.418Z,12.55
2019-01-12T07:11:03.723Z,14.05
2019-01-12T07:13:32.011Z,12.93
2019-01-12T07:16:00.318Z,14.10
2019-01-12T07:18:28.626Z,13.55
2019-01-12T07:20:57.160Z,14.63
2019-01-12T07:23:25.478Z,14.43
2019-01-12T07:25:53.787Z,14.63
2019-01-12T07:28:22.102Z,13.93
2019-01-12T07:30:50.393Z,13.30
2019-01-12T07:33:18.710Z,13.90
2019-01-12T07:35:46.996Z,14.05
2019-01-12T07:38:15.547Z,13.93
2019-01-12T07:40:43.853Z,16.53
2019-01-12T07:43:12.417Z,16.37
2019-01-12T07:45:40.708Z,13.75
2019-01-12T07:48:09.275Z,13.80
2019-01-12T07:50:37.563Z,13.20
2019-01-12T07:53:05.849Z,13.85
2019-01-12T07:55:34.165Z,13.98
2019-01-12T07:58:02.470Z,14.07
2019-01-12T08:00:30.769Z,13.43
2019-01-12T08:02:59.059Z,13.38
2019-01-12T08:05:27.378Z,14.20
2019-01-12T08:07:55.678Z,13.75
2019-01-12T08:10:24.356Z,14.20
2019-01-12T08:12:52.596Z,14.90
2019-01-12T08:15:21.230Z,14.93
2019-01-12T08:17:49.536Z,14.20
2019-01-12T08:20:17.926Z,15.07
2019-01-12T08:22:46.222Z,16.40
2019-01-12T08:25:14.508Z,16.80
2019-01-12T08:27:43.390Z,17.23
2019-01-12T08:30:16.521Z,17.02
2019-01-12T08:32:44.910Z,18.17
2019-01-12T08:35:13.443Z,17.92
2019-01-12T08:37:42.013Z,19.48
2019-01-12T08:40:11.855Z,18.48
2019-01-12T08:42:40.167Z,19.43
2019-01-12T08:45:10.195Z,18.90
2019-01-12T08:47:38.496Z,19.20
2019-01-12T08:50:12.573Z,18.37
2019-01-12T08:52:40.874Z,17.48
2019-01-12T08:55:10.413Z,17.50
2019-01-12T08:57:38.716Z,17.10
2019-01-12T09:00:13.394Z,17.07
2019-01-12T09:02:41.692Z,16.93
2019-01-12T09:05:10.065Z,17.25
2019-01-12T09:07:38.361Z,16.73
2019-01-12T09:10:10.158Z,17.10
2019-01-12T09:12:38.636Z,18.82
2019-01-12T09:15:09.048Z,17.87
2019-01-12T09:17:37.595Z,16.95
2019-01-12T09:20:09.071Z,17.70
2019-01-12T09:22:37.370Z,18.05
2019-01-12T09:25:07.260Z,18.35
2019-01-12T09:27:35.549Z,18.27
2019-01-12T09:30:07.307Z,20.95
2019-01-12T09:32:35.609Z,20.63
2019-01-12T09:35:04.429Z,21.10
2019-01-12T09:37:32.740Z,20.80
2019-01-12T09:40:01.030Z,21.00
2019-01-12T09:42:29.345Z,19.98
2019-01-12T09:44:57.884Z,20.27
2019-01-12T09:47:26.205Z,21.05
2019-01-12T09:49:54.493Z,21.17
2019-01-12T09:52:22.797Z,20.08
2019-01-12T09:54:51.354Z,19.95
2019-01-12T09:57:19.672Z,20.45
2019-01-12T09:59:48.217Z,21.03
2019-01-12T10:02:16.627Z,21.60
2019-01-12T10:04:45.160Z,20.77
2019-01-12T10:07:13.448Z,20.45
2019-01-12T10:09:41.753Z,21.68
2019-01-12T10:12:10.059Z,21.10
2019-01-12T10:14:38.413Z,20.32
2019-01-12T10:17:06.658Z,22.02
2019-01-12T10:19:34.962Z,22.20
2019-01-12T10:22:03.568Z,21.60
2019-01-12T10:24:31.895Z,21.30
2019-01-12T10:27:00.448Z,21.25
2019-01-12T10:29:28.753Z,21.93
2019-01-12T10:31:57.065Z,22.22
2019-01-12T10:34:25.360Z,23.32
2019-01-12T10:36:53.673Z,22.27
2019-01-12T10:39:21.976Z,23.20
2019-01-12T10:41:50.281Z,24.60
2019-01-12T10:44:18.833Z,23.77
2019-01-12T10:46:47.123Z,23.40
2019-01-12T10:49:15.424Z,23.42
2019-01-12T10:51:43.964Z,25.32
2019-01-12T10:54:12.285Z,23.57
2019-01-12T10:56:40.658Z,32.55
2019-01-12T10:59:08.979Z,23.90
2019-01-12T11:01:37.512Z,23.57
2019-01-12T11:04:05.900Z,23.90
2019-01-12T11:06:34.502Z,25.00
2019-01-12T11:09:04.201Z,24.85
2019-01-12T11:11:32.519Z,26.70
2019-01-12T11:14:01.048Z,25.77
2019-01-12T11:16:29.371Z,25.20
2019-01-12T11:18:57.658Z,25.90
2019-01-12T11:21:25.988Z,25.72
2019-01-12T11:23:54.285Z,25.37
2019-01-12T11:26:22.602Z,26.75
2019-01-12T11:28:51.143Z,26.62
2019-01-12T11:31:19.902Z,27.40
2019-01-12T11:33:48.587Z,28.50
2019-01-12T11:36:16.897Z,27.40
2019-01-12T11:38:45.219Z,29.25
2019-01-12T11:41:13.521Z,28.33
2019-01-12T11:43:41.824Z,27.87
2019-01-12T11:46:10.115Z,27.60
2019-01-12T11:48:38.682Z,26.70
2019-01-12T11:51:08.333Z,26.23
2019-01-12T11:53:36.657Z,25.40
2019-01-12T11:56:05.463Z,25.47
2019-01-12T11:58:33.941Z,25.97
2019-01-12T12:01:02.481Z,25.00
2019-01-12T12:03:30.785Z,25.52
2019-01-12T12:05:59.102Z,24.20
2019-01-12T12:08:27.383Z,24.90
2019-01-12T12:10:55.701Z,24.00
2019-01-12T12:13:24.251Z,24.67
2019-01-12T12:15:52.579Z,24.05
2019-01-12T12:18:21.111Z,23.70
2019-01-12T12:20:49.417Z,23.75
2019-01-12T12:23:17.732Z,22.67
2019-01-12T12:25:46.039Z,21.80
2019-01-12T12:28:14.340Z,22.10
2019-01-12T12:30:42.891Z,21.87
2019-01-12T12:33:11.425Z,22.50
2019-01-12T12:35:39.728Z,21.07
2019-01-12T12:38:08.096Z,24.05
2019-01-12T12:40:36.495Z,21.15
2019-01-12T12:43:05.055Z,21.42
2019-01-12T12:45:33.365Z,21.23
2019-01-12T12:48:01.660Z,21.40
2019-01-12T12:50:29.960Z,19.92
2019-01-12T12:52:58.266Z,20.37
2019-01-12T12:55:26.914Z,21.05
2019-01-12T12:57:55.266Z,20.95
2019-01-12T13:00:26.372Z,20.35
2019-01-12T13:02:54.677Z,19.15
2019-01-12T13:05:23.233Z,20.05
2019-01-12T13:07:51.525Z,18.02
2019-01-12T13:10:22.609Z,20.02
2019-01-12T13:12:50.914Z,18.90
2019-01-12T13:15:19.303Z,17.87
2019-01-12T13:17:47.631Z,17.60
2019-01-12T13:20:17.863Z,16.00
2019-01-12T13:22:46.350Z,16.07
2019-01-12T13:25:15.180Z,16.42
2019-01-12T13:27:43.505Z,17.67
2019-01-12T13:30:20.467Z,18.15
2019-01-12T13:32:49.130Z,17.50
2019-01-12T13:35:17.433Z,17.10
2019-01-12T13:37:45.742Z,20.30
2019-01-12T13:40:22.203Z,16.20
2019-01-12T13:42:50.514Z,15.80
2019-01-12T13:45:19.953Z,16.07
2019-01-12T13:47:48.230Z,15.73
2019-01-12T13:50:19.180Z,16.10
2019-01-12T13:52:47.483Z,16.67
2019-01-12T13:55:16.646Z,16.00
2019-01-12T13:57:47.964Z,16.55
2019-01-12T14:00:18.117Z,15.85
2019-01-12T14:02:46.677Z,16.40
2019-01-12T14:05:15.071Z,15.85
2019-01-12T14:07:43.363Z,16.10
2019-01-12T14:10:17.502Z,16.07
2019-01-12T14:12:45.990Z,16.67
2019-01-12T14:15:16.437Z,15.72
2019-01-12T14:17:44.996Z,16.52
2019-01-12T14:20:19.471Z,17.37
2019-01-12T14:22:47.765Z,18.42
2019-01-12T14:25:16.334Z,16.80
2019-01-12T14:27:44.887Z,17.80
2019-01-12T14:30:18.305Z,18.10
2019-01-12T14:32:46.909Z,18.20
2019-01-12T14:35:16.972Z,19.13
2019-01-12T14:37:45.347Z,20.12
2019-01-12T14:40:21.945Z,20.40
2019-01-12T14:42:50.253Z,21.50
2019-01-12T14:45:29.364Z,22.10
2019-01-12T14:47:57.683Z,23.92
2019-01-12T14:50:25.974Z,25.70
2019-01-12T14:52:54.360Z,24.50
2019-01-12T14:55:23.403Z,25.50
2019-01-12T14:57:51.716Z,23.52
2019-01-12T15:00:25.549Z,24.45
2019-01-12T15:02:53.948Z,23.90
2019-01-12T15:05:27.117Z,22.17
2019-01-12T15:07:55.499Z,20.77
2019-01-12T15:10:23.872Z,21.40
2019-01-12T15:12:52.663Z,20.68
2019-01-12T15:15:21.780Z,19.60
2019-01-12T15:17:50.147Z,19.55
2019-01-12T15:20:20.135Z,18.80
2019-01-12T15:22:48.429Z,19.52
2019-01-12T15:25:16.894Z,18.73
2019-01-12T15:27:45.440Z,19.77
2019-01-12T15:30:19.679Z,17.20
2019-01-12T15:32:48.056Z,16.35
2019-01-12T15:35:17.202Z,15.95
2019-01-12T15:37:45.593Z,15.90
2019-01-12T15:40:16.311Z,15.90
2019-01-12T15:42:44.616Z,16.48
2019-01-12T15:45:15.580Z,15.03
2019-01-12T15:47:43.880Z,12.93
2019-01-12T15:50:20.983Z,13.98
2019-01-12T15:52:49.351Z,14.18
2019-01-12T15:55:17.839Z,14.20
2019-01-12T15:57:46.179Z,13.05
2019-01-12T16:00:17.196Z,14.23
2019-01-12T16:02:45.589Z,14.43
2019-01-12T16:05:14.012Z,13.50
2019-01-12T16:07:42.328Z,13.38
2019-01-12T16:10:12.166Z,13.40
2019-01-12T16:12:40.736Z,13.35
2019-01-12T16:15:12.239Z,14.00
2019-01-12T16:17:40.560Z,14.98
2019-01-12T16:20:14.811Z,16.37
2019-01-12T16:22:43.122Z,16.62
2019-01-12T16:25:12.054Z,16.23
2019-01-12T16:27:40.635Z,11.15
2019-01-12T16:30:17.650Z,10.45
2019-01-12T16:32:45.907Z,7.22
2019-01-12T16:35:14.524Z,6.17
2019-01-12T16:37:43.206Z,6.40
2019-01-12T16:40:22.684Z,5.33
2019-01-12T16:42:51.154Z,4.10
2019-01-12T16:45:19.682Z,3.55
2019-01-12T16:47:47.962Z,4.60
2019-01-12T16:50:16.578Z,4.97
2019-01-12T16:52:44.936Z,3.60
2019-01-12T16:55:15.116Z,5.45
2019-01-12T16:57:43.460Z,4.30
2019-01-12T17:00:26.154Z,4.20
2019-01-12T17:02:54.437Z,9.33
2019-01-12T17:05:23.196Z,23.38
2019-01-12T17:07:51.782Z,10.05
2019-01-12T17:10:21.562Z,11.33
2019-01-12T17:12:50.190Z,12.82
2019-01-12T17:15:20.364Z,11.10
2019-01-12T17:17:48.737Z,10.80
2019-01-12T17:20:19.382Z,11.55
2019-01-12T17:22:48.442Z,11.25
2019-01-12T17:25:16.747Z,14.68
2019-01-12T17:27:45.296Z,12.43
2019-01-12T17:30:16.241Z,14.78
2019-01-12T17:32:44.540Z,11.28
2019-01-12T17:35:13.565Z,9.80
2019-01-12T17:37:42.009Z,9.60
2019-01-12T17:40:12.447Z,12.68
2019-01-12T17:42:41.044Z,10.20
2019-01-12T17:45:12.656Z,10.55
2019-01-12T17:47:40.956Z,8.03
2019-01-12T17:50:12.127Z,14.67
2019-01-12T17:52:40.416Z,9.20
2019-01-12T17:55:12.424Z,9.65
2019-01-12T17:57:40.785Z,12.15
2019-01-12T18:00:15.945Z,12.65
2019-01-12T18:02:44.254Z,11.30
2019-01-12T18:05:12.869Z,11.35
2019-01-12T18:07:41.181Z,12.05
2019-01-12T18:10:14.026Z,10.80
2019-01-12T18:12:42.576Z,10.40
2019-01-12T18:15:15.353Z,10.43
2019-01-12T18:17:43.657Z,9.63
2019-01-12T18:20:14.794Z,9.40
2019-01-12T18:22:43.463Z,8.50
2019-01-12T18:25:12.798Z,9.28
2019-01-12T18:27:41.522Z,9.20
2019-01-12T18:30:13.134Z,9.67
2019-01-12T18:32:41.431Z,10.10
2019-01-12T18:35:09.909Z,10.05
2019-01-12T18:37:38.448Z,11.17
2019-01-12T18:40:09.758Z,9.90
2019-01-12T18:42:38.057Z,9.33
2019-01-12T18:45:09.320Z,8.30
2019-01-12T18:47:37.671Z,8.38
2019-01-12T18:50:09.153Z,7.90
2019-01-12T18:52:37.451Z,8.70
2019-01-12T18:55:07.891Z,9.08
2019-01-12T18:57:36.185Z,8.60
2019-01-12T19:00:07.963Z,9.25
2019-01-12T19:02:36.265Z,16.67
2019-01-12T19:05:05.906Z,11.40
2019-01-12T19:07:34.233Z,9.67
2019-01-12T19:10:02.518Z,9.65
2019-01-12T19:12:30.821Z,10.53
2019-01-12T19:14:59.115Z,11.30
2019-01-12T19:17:27.688Z,11.50
2019-01-12T19:19:55.978Z,13.95
2019-01-12T19:22:24.269Z,12.50
2019-01-12T19:24:52.596Z,14.35
2019-01-12T19:27:20.871Z,19.42
2019-01-12T19:29:49.199Z,15.48
2019-01-12T19:32:17.498Z,14.30
2019-01-12T19:34:46.081Z,12.90
2019-01-12T19:37:14.382Z,13.80
2019-01-12T19:39:42.677Z,11.20
2019-01-12T19:42:10.989Z,9.95
2019-01-12T19:44:39.271Z,9.90
2019-01-12T19:47:07.585Z,9.73
2019-01-12T19:49:36.113Z,9.50
2019-01-12T19:52:04.412Z,8.95
2019-01-12T19:54:32.721Z,9.08
2019-01-12T19:57:01.043Z,12.18
2019-01-12T19:59:29.334Z,9.60
2019-01-12T20:01:57.619Z,9.90
2019-01-12T20:04:25.920Z,8.00
2019-01-12T20:06:54.464Z,8.60
2019-01-12T20:09:22.769Z,9.40
2019-01-12T20:11:51.065Z,8.15
2019-01-12T20:14:19.627Z,9.50
2019-01-12T20:16:47.930Z,9.20
2019-01-12T20:19:16.233Z,9.40
2019-01-12T20:21:44.555Z,9.33
2019-01-12T20:24:12.868Z,10.50
2019-01-12T20:26:41.158Z,10.53
2019-01-12T20:29:09.457Z,10.00
2019-01-12T20:31:49.469Z,9.93
2019-01-12T20:34:32.782Z,11.55
2019-01-12T20:37:16.137Z,9.00
2019-01-12T20:40:08.012Z,8.45
2019-01-12T20:42:58.688Z,8.83
2019-01-12T20:45:33.572Z,6.80
2019-01-12T20:48:16.739Z,6.80
2019-01-12T20:51:04.429Z,6.80
2019-01-12T20:53:38.674Z,6.93
2019-01-12T20:56:10.144Z,6.30
2019-01-12T20:58:44.446Z,6.00
2019-01-12T21:01:36.800Z,6.30
2019-01-12T21:04:32.415Z,6.10
2019-01-12T21:07:18.362Z,6.50
2019-01-12T21:09:52.840Z,6.30
2019-01-12T21:12:57.353Z,6.30
2019-01-12T21:15:28.817Z,7.10
2019-01-12T21:17:57.339Z,6.80
2019-01-12T21:20:25.641Z,7.28
2019-01-12T21:22:53.934Z,8.53
2019-01-12T21:25:22.500Z,9.15
2019-01-12T21:27:50.872Z,22.50
2019-01-12T21:30:19.228Z,10.20
2019-01-12T21:32:47.534Z,8.90
2019-01-12T21:35:15.833Z,9.65
2019-01-12T21:37:44.149Z,9.75
2019-01-12T21:40:12.617Z,9.67
2019-01-12T21:42:40.939Z,8.30
2019-01-12T21:45:12.387Z,8.08
2019-01-12T21:47:40.717Z,8.10
2019-01-12T21:50:12.017Z,8.47
2019-01-12T21:52:40.389Z,8.93
2019-01-12T21:55:10.173Z,9.00
2019-01-12T21:57:38.534Z,9.68
2019-01-12T22:00:10.018Z,9.50
2019-01-12T22:02:38.301Z,9.73
2019-01-12T22:05:08.290Z,10.20
2019-01-12T22:07:36.605Z,10.82
2019-01-12T22:10:08.318Z,9.88
2019-01-12T22:12:36.856Z,9.20
2019-01-12T22:15:08.367Z,9.73
2019-01-12T22:17:36.792Z,9.30
2019-01-12T22:20:08.283Z,9.48
2019-01-12T22:22:36.575Z,9.25
2019-01-12T22:25:06.316Z,9.93
2019-01-12T22:27:34.645Z,10.05
2019-01-12T22:30:02.936Z,8.80
2019-01-12T22:32:31.548Z,9.43
2019-01-12T22:34:59.849Z,8.70
2019-01-12T22:37:28.416Z,10.28
2019-01-12T22:39:56.736Z,8.00
2019-01-12T22:42:25.052Z,8.40
2019-01-12T22:44:53.596Z,8.10
2019-01-12T22:47:22.209Z,8.58
2019-01-12T22:49:50.495Z,9.35
2019-01-12T22:52:18.986Z,8.40
2019-01-12T22:54:47.277Z,9.98
2019-01-12T22:57:15.597Z,9.53
2019-01-12T22:59:43.914Z,10.00
2019-01-12T23:02:12.285Z,9.20
2019-01-12T23:04:40.602Z,10.63
2019-01-12T23:07:11.583Z,10.60
2019-01-12T23:09:55.273Z,10.55
2019-01-12T23:12:23.576Z,10.18
2019-01-12T23:14:52.191Z,10.82
2019-01-12T23:17:20.489Z,9.93
2019-01-12T23:20:07.920Z,9.70
2019-01-12T23:22:36.210Z,10.75
2019-01-12T23:25:44.558Z,9.80
2019-01-12T23:28:13.181Z,10.45
2019-01-12T23:31:00.693Z,9.73
2019-01-12T23:33:29.276Z,10.53
2019-01-12T23:38:44.910Z,11.20
2019-01-12T23:41:13.204Z,11.22
2019-01-12T23:44:00.895Z,11.60
2019-01-12T23:46:48.626Z,9.60
2019-01-12T23:49:36.306Z,11.45
2019-01-12T23:52:44.888Z,9.90
2019-01-12T23:55:53.249Z,11.90
2019-01-12T23:58:21.875Z,11.70
